createdAt,value
2019-04-20T00:01:03.364Z,13.40
2019-04-20T00:02:14.381Z,13.40
2019-04-20T00:03:19.204Z,13.30
2019-04-20T00:04:31.002Z,13.30
2019-04-20T00:05:35.107Z,13.30
2019-04-20T00:06:46.726Z,13.20
2019-04-20T00:07:52.168Z,13.20
2019-04-20T00:09:07.422Z,13.20
2019-04-20T00:10:13.506Z,13.10
2019-04-20T00:11:25.425Z,13.10
2019-04-20T00:12:37.196Z,13.00
2019-04-20T00:13:46.918Z,13.10
2019-04-20T00:14:44.327Z,13.10
2019-04-20T00:15:51.378Z,13.10
2019-04-20T00:16:58.982Z,13.10
2019-04-20T00:18:08.278Z,13.10
2019-04-20T00:19:24.317Z,13.00
2019-04-20T00:20:28.996Z,13.00
2019-04-20T00:21:47.030Z,13.00
2019-04-20T00:22:58.223Z,13.00
2019-04-20T00:24:15.752Z,13.10
2019-04-20T00:25:46.234Z,13.10
2019-04-20T00:28:25.409Z,13.00
2019-04-20T00:29:29.398Z,13.00
2019-04-20T00:30:48.046Z,13.00
2019-04-20T00:31:45.759Z,13.00
2019-04-20T00:32:56.423Z,13.10
2019-04-20T00:34:02.388Z,13.00
2019-04-20T00:34:59.934Z,13.00
2019-04-20T00:36:08.958Z,13.00
2019-04-20T00:37:17.054Z,13.00
2019-04-20T00:38:27.151Z,13.00
2019-04-20T00:39:34.002Z,13.00
2019-04-20T00:40:41.548Z,13.00
2019-04-20T00:41:55.154Z,13.00
2019-04-20T00:42:59.831Z,12.90
2019-04-20T00:44:13.050Z,12.90
2019-04-20T00:45:20.360Z,12.90
2019-04-20T00:46:29.281Z,12.90
2019-04-20T00:47:42.978Z,12.90
2019-04-20T00:48:51.853Z,12.90
2019-04-20T00:50:02.540Z,13.00
2019-04-20T00:51:21.402Z,12.90
2019-04-20T00:52:27.367Z,12.90
2019-04-20T00:53:26.195Z,12.90
2019-04-20T00:54:26.390Z,12.90
2019-04-20T00:55:34.211Z,12.80
2019-04-20T00:56:41.466Z,12.80
2019-04-20T00:57:54.664Z,12.80
2019-04-20T00:59:12.010Z,12.80
2019-04-20T01:00:26.813Z,12.70
2019-04-20T01:01:36.197Z,12.80
2019-04-20T01:02:36.145Z,12.80
2019-04-20T01:03:52.748Z,12.80
2019-04-20T01:05:04.537Z,12.70
2019-04-20T01:06:23.122Z,12.70
2019-04-20T01:07:38.620Z,12.70
2019-04-20T01:08:48.417Z,12.70
2019-04-20T01:10:11.046Z,12.70
2019-04-20T01:11:27.028Z,12.70
2019-04-20T01:12:30.336Z,12.70
2019-04-20T01:13:42.095Z,12.60
2019-04-20T01:14:53.516Z,12.60
2019-04-20T01:16:03.285Z,12.60
2019-04-20T01:17:11.643Z,12.60
2019-04-20T01:18:13.975Z,12.60
2019-04-20T01:19:21.529Z,12.60
2019-04-20T01:20:28.702Z,12.60
2019-04-20T01:21:36.848Z,12.70
2019-04-20T01:22:53.576Z,12.70
2019-04-20T01:23:58.620Z,12.60
2019-04-20T01:25:09.783Z,12.60
2019-04-20T01:26:15.887Z,12.50
2019-04-20T01:27:32.540Z,12.50
2019-04-20T01:28:46.458Z,12.50
2019-04-20T01:29:45.702Z,12.50
2019-04-20T01:31:00.164Z,12.50
2019-04-20T01:32:07.970Z,12.50
2019-04-20T01:33:16.251Z,12.50
2019-04-20T01:34:26.592Z,12.60
2019-04-20T01:35:39.532Z,12.50
2019-04-20T01:36:45.830Z,12.50
2019-04-20T01:37:58.624Z,12.50
2019-04-20T01:38:58.935Z,12.40
2019-04-20T01:39:58.604Z,12.40
2019-04-20T01:41:03.663Z,12.40
2019-04-20T01:42:11.261Z,12.30
2019-04-20T01:43:18.633Z,12.30
2019-04-20T01:44:35.388Z,12.30
2019-04-20T01:45:40.419Z,12.30
2019-04-20T01:46:50.480Z,12.40
2019-04-20T01:47:57.401Z,12.40
2019-04-20T01:49:09.401Z,12.30
2019-04-20T01:50:16.668Z,12.30
2019-04-20T01:51:28.172Z,12.30
2019-04-20T01:52:43.446Z,12.30
2019-04-20T01:54:02.170Z,12.30
2019-04-20T01:55:24.464Z,12.20
2019-04-20T01:56:27.897Z,12.20
2019-04-20T01:57:54.584Z,12.20
2019-04-20T01:59:21.413Z,12.20
2019-04-20T02:00:31.569Z,12.10
2019-04-20T02:01:59.230Z,12.10
2019-04-20T02:03:22.804Z,12.10
2019-04-20T02:04:36.968Z,12.00
2019-04-20T02:05:41.847Z,12.00
2019-04-20T02:06:54.016Z,11.90
2019-04-20T02:07:59.068Z,11.90
2019-04-20T02:09:14.942Z,11.80
2019-04-20T02:10:21.790Z,11.80
2019-04-20T02:11:32.778Z,11.80
2019-04-20T02:12:39.196Z,11.80
2019-04-20T02:13:49.868Z,11.70
2019-04-20T02:14:57.530Z,11.70
2019-04-20T02:16:11.478Z,11.60
2019-04-20T02:17:21.388Z,11.60
2019-04-20T02:18:33.722Z,11.60
2019-04-20T02:19:41.577Z,11.50
2019-04-20T02:20:54.521Z,11.50
2019-04-20T02:22:01.501Z,11.50
2019-04-20T02:23:07.325Z,11.40
2019-04-20T02:24:05.924Z,11.40
2019-04-20T02:25:12.167Z,11.30
2019-04-20T02:26:19.968Z,11.30
2019-04-20T02:27:36.800Z,11.30
2019-04-20T02:29:00.714Z,11.30
2019-04-20T02:30:07.861Z,11.30
2019-04-20T02:31:32.945Z,11.30
2019-04-20T02:32:47.171Z,11.30
2019-04-20T02:33:47.493Z,11.30
2019-04-20T02:35:26.344Z,11.30
2019-04-20T02:38:15.325Z,11.20
2019-04-20T02:39:37.888Z,11.20
2019-04-20T02:40:52.165Z,11.20
2019-04-20T02:41:44.513Z,11.10
2019-04-20T02:42:51.592Z,11.20
2019-04-20T02:46:14.815Z,11.20
2019-04-20T02:47:32.128Z,11.20
2019-04-20T02:48:29.759Z,11.20
2019-04-20T02:49:40.401Z,11.10
2019-04-20T02:50:52.961Z,11.10
2019-04-20T02:53:17.366Z,11.20
2019-04-20T02:54:19.040Z,11.30
2019-04-20T02:55:22.855Z,11.20
2019-04-20T02:56:43.520Z,11.10
2019-04-20T02:57:49.330Z,11.00
2019-04-20T02:58:50.305Z,11.10
2019-04-20T03:00:08.685Z,11.00
2019-04-20T03:00:58.354Z,11.10
2019-04-20T03:02:06.491Z,11.10
2019-04-20T03:03:09.189Z,11.00
2019-04-20T03:04:06.902Z,11.00
2019-04-20T03:05:26.320Z,10.90
2019-04-20T03:06:32.949Z,11.00
2019-04-20T03:07:50.351Z,11.00
2019-04-20T03:09:05.811Z,10.90
2019-04-20T03:10:06.518Z,10.90
2019-04-20T03:11:23.417Z,10.90
2019-04-20T03:12:30.355Z,10.80
2019-04-20T03:13:32.206Z,10.80
2019-04-20T03:14:39.686Z,10.80
2019-04-20T03:15:48.542Z,10.90
2019-04-20T03:17:04.364Z,10.90
2019-04-20T03:18:08.799Z,10.80
2019-04-20T03:19:14.791Z,10.80
2019-04-20T03:20:27.093Z,10.80
2019-04-20T03:21:39.321Z,10.90
2019-04-20T03:23:05.175Z,10.80
2019-04-20T03:23:59.664Z,10.80
2019-04-20T03:25:05.781Z,10.80
2019-04-20T03:26:21.177Z,10.80
2019-04-20T03:28:00.928Z,10.80
2019-04-20T03:29:13.961Z,10.80
2019-04-20T03:31:22.782Z,10.80
2019-04-20T03:34:51.472Z,10.70
2019-04-20T03:35:37.144Z,10.70
2019-04-20T03:36:47.240Z,10.70
2019-04-20T03:37:48.500Z,10.60
2019-04-20T03:38:57.458Z,10.50
2019-04-20T03:39:56.794Z,10.50
2019-04-20T03:41:05.903Z,10.50
2019-04-20T03:42:05.155Z,10.50
2019-04-20T03:43:11.896Z,10.50
2019-04-20T03:44:23.700Z,10.40
2019-04-20T03:45:35.022Z,10.40
2019-04-20T03:46:44.896Z,10.40
2019-04-20T03:47:57.053Z,10.40
2019-04-20T03:49:11.854Z,10.40
2019-04-20T03:50:24.329Z,10.40
2019-04-20T03:51:35.853Z,10.40
2019-04-20T03:52:49.743Z,10.30
2019-04-20T03:54:13.759Z,10.30
2019-04-20T03:55:37.018Z,10.30
2019-04-20T03:57:13.722Z,10.40
2019-04-20T03:58:21.575Z,10.30
2019-04-20T03:59:33.794Z,10.30
2019-04-20T04:01:08.261Z,10.20
2019-04-20T04:03:00.388Z,10.10
2019-04-20T04:04:04.221Z,10.10
2019-04-20T04:05:08.514Z,10.10
2019-04-20T04:06:21.490Z,10.10
2019-04-20T04:07:24.868Z,10.00
2019-04-20T04:08:32.933Z,9.90
2019-04-20T04:09:46.722Z,9.90
2019-04-20T04:11:03.243Z,9.90
2019-04-20T04:12:04.038Z,9.90
2019-04-20T04:13:18.725Z,9.90
2019-04-20T04:14:26.092Z,9.90
2019-04-20T04:15:36.148Z,9.80
2019-04-20T04:16:47.771Z,9.80
2019-04-20T04:17:51.436Z,9.80
2019-04-20T04:19:08.933Z,9.80
2019-04-20T04:20:14.315Z,9.80
2019-04-20T04:21:28.944Z,9.80
2019-04-20T04:22:46.245Z,9.80
2019-04-20T04:23:48.976Z,9.80
2019-04-20T04:24:57.126Z,9.80
2019-04-20T04:27:16.226Z,9.70
2019-04-20T04:28:27.288Z,9.70
2019-04-20T04:29:35.647Z,9.80
2019-04-20T04:30:39.974Z,9.70
2019-04-20T04:32:02.301Z,9.70
2019-04-20T04:33:32.920Z,9.70
2019-04-20T04:34:10.751Z,9.70
2019-04-20T04:35:15.839Z,9.70
2019-04-20T04:36:29.289Z,9.70
2019-04-20T04:37:38.571Z,9.60
2019-04-20T04:38:47.491Z,9.70
2019-04-20T04:40:01.053Z,9.70
2019-04-20T04:42:16.710Z,9.60
2019-04-20T04:43:19.796Z,9.70
2019-04-20T04:44:24.265Z,9.70
2019-04-20T04:45:23.665Z,9.70
2019-04-20T04:46:29.253Z,9.60
2019-04-20T04:47:36.747Z,9.60
2019-04-20T04:48:46.445Z,9.60
2019-04-20T04:49:59.963Z,9.60
2019-04-20T04:51:08.440Z,9.60
2019-04-20T04:52:13.464Z,9.60
2019-04-20T04:53:29.843Z,9.60
2019-04-20T04:54:37.682Z,9.60
2019-04-20T04:55:46.729Z,9.60
2019-04-20T04:56:44.264Z,9.60
2019-04-20T04:57:51.597Z,9.70
2019-04-20T04:59:00.269Z,9.70
2019-04-20T05:00:11.137Z,9.70
2019-04-20T05:01:22.387Z,9.70
2019-04-20T05:02:32.483Z,9.70
2019-04-20T05:04:06.428Z,9.70
2019-04-20T05:05:24.791Z,9.70
2019-04-20T05:06:31.793Z,9.80
2019-04-20T05:07:46.439Z,9.80
2019-04-20T05:08:44.024Z,9.80
2019-04-20T05:09:46.553Z,9.80
2019-04-20T05:10:54.164Z,9.80
2019-04-20T05:12:07.147Z,9.80
2019-04-20T05:13:09.677Z,9.80
2019-04-20T05:14:22.420Z,9.80
2019-04-20T05:15:37.388Z,9.80
2019-04-20T05:16:51.317Z,9.90
2019-04-20T05:18:01.985Z,9.90
2019-04-20T05:19:13.552Z,9.90
2019-04-20T05:20:17.881Z,9.90
2019-04-20T05:22:01.276Z,10.00
2019-04-20T05:23:03.973Z,10.00
2019-04-20T05:24:43.227Z,10.10
2019-04-20T05:26:14.556Z,10.10
2019-04-20T05:27:44.000Z,10.10
2019-04-20T05:28:39.255Z,10.20
2019-04-20T05:29:36.632Z,10.30
2019-04-20T05:30:48.588Z,10.50
2019-04-20T05:31:59.963Z,10.50
2019-04-20T05:33:07.816Z,10.50
2019-04-20T05:34:31.008Z,10.50
2019-04-20T05:35:37.869Z,10.50
2019-04-20T05:36:44.863Z,10.60
2019-04-20T05:38:06.922Z,10.60
2019-04-20T05:39:13.135Z,10.60
2019-04-20T05:40:16.253Z,10.80
2019-04-20T05:41:21.327Z,10.80
2019-04-20T05:42:41.185Z,10.80
2019-04-20T05:43:47.078Z,10.80
2019-04-20T05:44:57.127Z,10.90
2019-04-20T05:46:04.248Z,11.00
2019-04-20T05:47:16.935Z,11.00
2019-04-20T05:48:22.166Z,11.00
2019-04-20T05:49:34.497Z,11.00
2019-04-20T05:50:43.497Z,11.10
2019-04-20T05:51:49.838Z,11.20
2019-04-20T05:53:04.513Z,11.20
2019-04-20T05:54:12.225Z,11.20
2019-04-20T05:55:16.324Z,11.30
2019-04-20T05:56:33.091Z,11.40
2019-04-20T05:57:35.070Z,11.40
2019-04-20T05:58:46.390Z,11.40
2019-04-20T05:59:59.438Z,11.40
2019-04-20T06:01:05.572Z,11.40
2019-04-20T06:02:11.147Z,11.50
2019-04-20T06:03:18.789Z,11.60
2019-04-20T06:04:31.449Z,11.70
2019-04-20T06:05:50.812Z,11.70
2019-04-20T06:06:52.059Z,11.80
2019-04-20T06:07:56.296Z,11.80
2019-04-20T06:09:12.981Z,11.80
2019-04-20T06:10:11.424Z,11.90
2019-04-20T06:11:24.636Z,12.00
2019-04-20T06:12:31.852Z,12.00
2019-04-20T06:13:40.690Z,12.00
2019-04-20T06:15:15.528Z,12.10
2019-04-20T06:16:40.829Z,12.10
2019-04-20T06:17:59.750Z,12.20
2019-04-20T06:19:24.348Z,12.30
2019-04-20T06:20:19.748Z,12.30
2019-04-20T06:21:53.246Z,12.30
2019-04-20T06:22:53.052Z,12.30
2019-04-20T06:25:39.301Z,12.50
2019-04-20T06:26:43.525Z,12.50
2019-04-20T06:27:49.933Z,12.60
2019-04-20T06:28:46.388Z,12.60
2019-04-20T06:29:55.774Z,12.60
2019-04-20T06:31:11.114Z,12.70
2019-04-20T06:32:21.095Z,12.70
2019-04-20T06:35:51.617Z,12.80
2019-04-20T06:36:47.212Z,12.90
2019-04-20T06:37:55.116Z,13.00
2019-04-20T06:39:02.555Z,13.00
2019-04-20T06:40:24.668Z,13.10
2019-04-20T06:41:29.749Z,13.10
2019-04-20T06:42:43.979Z,13.20
2019-04-20T06:43:41.728Z,13.20
2019-04-20T06:44:39.308Z,13.20
2019-04-20T06:46:02.010Z,13.20
2019-04-20T06:48:14.667Z,13.30
2019-04-20T06:49:25.899Z,13.30
2019-04-20T06:50:22.596Z,13.30
2019-04-20T06:51:34.645Z,13.40
2019-04-20T06:53:01.500Z,13.40
2019-04-20T06:54:12.357Z,13.50
2019-04-20T06:55:38.165Z,13.50
2019-04-20T06:56:42.008Z,13.50
2019-04-20T06:57:52.865Z,13.70
2019-04-20T06:59:08.205Z,13.70
2019-04-20T07:00:12.776Z,13.70
2019-04-20T07:01:23.467Z,13.70
2019-04-20T07:02:29.745Z,13.80
2019-04-20T07:03:51.558Z,13.80
2019-04-20T07:04:55.425Z,13.90
2019-04-20T07:05:50.508Z,13.90
2019-04-20T07:07:05.315Z,14.00
2019-04-20T07:08:30.132Z,14.00
2019-04-20T07:09:22.003Z,14.20
2019-04-20T07:10:34.345Z,14.20
2019-04-20T07:11:35.847Z,14.30
2019-04-20T07:12:43.643Z,14.30
2019-04-20T07:13:45.606Z,14.30
2019-04-20T07:14:52.485Z,14.40
2019-04-20T07:16:21.434Z,14.40
2019-04-20T07:17:54.995Z,14.40
2019-04-20T07:19:04.882Z,14.50
2019-04-20T07:20:12.876Z,14.60
2019-04-20T07:21:52.312Z,14.70
2019-04-20T07:23:03.575Z,14.80
2019-04-20T07:24:14.141Z,14.80
2019-04-20T07:25:13.857Z,14.90
2019-04-20T07:26:37.493Z,14.90
2019-04-20T07:27:33.633Z,14.90
2019-04-20T07:28:51.221Z,14.90
2019-04-20T07:29:54.945Z,14.90
2019-04-20T07:30:58.005Z,14.90
2019-04-20T07:32:01.818Z,15.00
2019-04-20T07:33:15.638Z,15.10
2019-04-20T07:34:23.079Z,15.10
2019-04-20T07:35:30.561Z,15.10
2019-04-20T07:36:45.788Z,15.10
2019-04-20T07:39:00.670Z,15.20
2019-04-20T07:40:11.716Z,15.20
2019-04-20T07:41:26.175Z,15.30
2019-04-20T07:42:29.327Z,15.40
2019-04-20T07:43:29.993Z,15.50
2019-04-20T07:44:49.893Z,15.50
2019-04-20T07:45:49.027Z,15.60
2019-04-20T07:47:09.049Z,15.70
2019-04-20T07:48:11.348Z,15.70
2019-04-20T07:49:18.204Z,15.80
2019-04-20T07:50:22.870Z,15.90
2019-04-20T07:51:23.142Z,16.00
2019-04-20T07:52:33.818Z,16.10
2019-04-20T07:53:45.040Z,16.10
2019-04-20T07:55:19.124Z,16.20
2019-04-20T07:56:13.162Z,16.30
2019-04-20T07:57:15.816Z,16.30
2019-04-20T07:58:18.415Z,16.40
2019-04-20T07:59:27.602Z,16.50
2019-04-20T08:00:59.755Z,16.50
2019-04-20T08:02:37.726Z,16.60
2019-04-20T08:03:44.412Z,16.70
2019-04-20T08:05:06.244Z,16.70
2019-04-20T08:06:17.484Z,16.80
2019-04-20T08:07:20.627Z,16.90
2019-04-20T08:08:43.991Z,16.90
2019-04-20T08:09:46.572Z,17.00
2019-04-20T08:11:09.764Z,17.00
2019-04-20T08:12:25.600Z,17.00
2019-04-20T08:14:40.030Z,17.10
2019-04-20T08:15:52.482Z,17.10
2019-04-20T08:17:14.411Z,17.10
2019-04-20T08:19:13.263Z,17.30
2019-04-20T08:20:19.982Z,17.40
2019-04-20T08:21:38.696Z,17.50
2019-04-20T08:22:46.626Z,17.50
2019-04-20T08:23:50.684Z,17.60
2019-04-20T08:24:52.380Z,17.60
2019-04-20T08:25:57.157Z,17.70
2019-04-20T08:27:05.687Z,17.80
2019-04-20T08:28:21.451Z,17.80
2019-04-20T08:29:44.231Z,17.80
2019-04-20T08:31:00.897Z,17.90
2019-04-20T08:32:23.123Z,18.00
2019-04-20T08:33:35.009Z,18.20
2019-04-20T08:34:54.344Z,18.20
2019-04-20T08:36:02.851Z,18.20
2019-04-20T08:37:01.049Z,18.30
2019-04-20T08:38:37.270Z,18.40
2019-04-20T08:39:42.405Z,18.40
2019-04-20T08:40:36.064Z,18.50
2019-04-20T08:41:37.261Z,18.50
2019-04-20T08:43:00.562Z,18.60
2019-04-20T08:43:58.948Z,18.60
2019-04-20T08:45:07.150Z,18.60
2019-04-20T08:46:17.746Z,18.70
2019-04-20T08:47:35.098Z,18.70
2019-04-20T08:48:32.909Z,18.80
2019-04-20T08:49:52.226Z,18.90
2019-04-20T08:50:50.641Z,18.90
2019-04-20T08:52:13.047Z,18.90
2019-04-20T08:53:24.785Z,18.90
2019-04-20T08:54:16.568Z,18.90
2019-04-20T08:55:23.878Z,19.00
2019-04-20T08:56:31.163Z,19.10
2019-04-20T08:57:24.835Z,19.10
2019-04-20T08:58:32.041Z,19.30
2019-04-20T08:59:40.249Z,19.30
2019-04-20T09:00:53.676Z,19.40
2019-04-20T09:01:58.117Z,19.50
2019-04-20T09:03:15.330Z,19.50
2019-04-20T09:04:24.224Z,19.50
2019-04-20T09:05:34.801Z,19.50
2019-04-20T09:06:49.184Z,19.50
2019-04-20T09:07:57.526Z,19.60
2019-04-20T09:09:11.610Z,19.70
2019-04-20T09:10:28.253Z,19.70
2019-04-20T09:11:40.061Z,19.70
2019-04-20T09:12:35.513Z,19.90
2019-04-20T09:13:36.327Z,20.00
2019-04-20T09:14:39.656Z,20.00
2019-04-20T09:15:47.029Z,20.10
2019-04-20T09:17:23.091Z,20.10
2019-04-20T09:18:34.333Z,20.10
2019-04-20T09:19:46.962Z,20.20
2019-04-20T09:20:52.916Z,20.10
2019-04-20T09:22:24.390Z,20.10
2019-04-20T09:23:36.668Z,20.20
2019-04-20T09:24:52.827Z,20.20
2019-04-20T09:26:00.082Z,20.30
2019-04-20T09:27:04.706Z,20.40
2019-04-20T09:28:34.561Z,20.50
2019-04-20T09:29:40.419Z,20.60
2019-04-20T09:30:53.929Z,20.70
2019-04-20T09:32:16.778Z,20.70
2019-04-20T09:33:44.036Z,20.70
2019-04-20T09:34:54.574Z,20.70
2019-04-20T09:35:57.669Z,20.70
2019-04-20T09:37:24.695Z,20.70
2019-04-20T09:38:36.856Z,20.70
2019-04-20T09:40:02.394Z,20.80
2019-04-20T09:41:10.101Z,20.80
2019-04-20T09:42:20.031Z,20.80
2019-04-20T09:43:38.913Z,20.90
2019-04-20T09:44:51.116Z,20.90
2019-04-20T09:46:00.225Z,21.00
2019-04-20T09:47:06.485Z,21.00
2019-04-20T09:48:19.312Z,21.00
2019-04-20T09:49:37.810Z,21.10
2019-04-20T09:50:47.530Z,21.10
2019-04-20T09:51:55.089Z,21.20
2019-04-20T09:53:04.072Z,21.20
2019-04-20T09:54:10.723Z,21.20
2019-04-20T09:55:18.366Z,21.20
2019-04-20T09:56:30.366Z,21.20
2019-04-20T09:57:39.073Z,21.30
2019-04-20T09:58:50.928Z,21.40
2019-04-20T09:59:57.272Z,21.50
2019-04-20T10:01:04.403Z,21.50
2019-04-20T10:02:06.803Z,21.40
2019-04-20T10:03:06.703Z,21.50
2019-04-20T10:04:15.233Z,21.50
2019-04-20T10:05:23.289Z,21.60
2019-04-20T10:06:33.947Z,21.70
2019-04-20T10:07:40.518Z,21.70
2019-04-20T10:08:51.503Z,21.70
2019-04-20T10:09:57.771Z,21.70
2019-04-20T10:11:05.667Z,21.70
2019-04-20T10:12:13.534Z,21.70
2019-04-20T10:13:21.576Z,21.70
2019-04-20T10:14:30.897Z,21.70
2019-04-20T10:15:37.853Z,21.80
2019-04-20T10:16:44.639Z,22.00
2019-04-20T10:17:51.957Z,22.10
2019-04-20T10:18:59.224Z,22.10
2019-04-20T10:20:10.866Z,22.10
2019-04-20T10:21:16.450Z,22.10
2019-04-20T10:22:24.592Z,22.10
2019-04-20T10:23:32.503Z,22.30
2019-04-20T10:24:39.484Z,22.20
2019-04-20T10:25:46.833Z,22.20
2019-04-20T10:26:54.581Z,22.20
2019-04-20T10:28:03.302Z,22.20
2019-04-20T10:29:10.452Z,22.20
2019-04-20T10:30:18.638Z,22.20
2019-04-20T10:31:26.476Z,22.10
2019-04-20T10:32:39.372Z,22.10
2019-04-20T10:33:42.021Z,22.20
2019-04-20T10:34:48.773Z,22.30
2019-04-20T10:35:55.571Z,22.20
2019-04-20T10:37:16.076Z,22.20
2019-04-20T10:38:27.581Z,22.30
2019-04-20T10:39:38.476Z,22.30
2019-04-20T10:40:55.890Z,22.40
2019-04-20T10:41:58.484Z,22.40
2019-04-20T10:43:04.449Z,22.40
2019-04-20T10:44:12.336Z,22.30
2019-04-20T10:45:19.259Z,22.30
2019-04-20T10:46:26.949Z,22.30
2019-04-20T10:47:34.956Z,22.30
2019-04-20T10:48:48.034Z,22.20
2019-04-20T10:49:51.137Z,22.20
2019-04-20T10:50:58.992Z,22.20
2019-04-20T10:52:07.475Z,22.30
2019-04-20T10:53:14.459Z,22.40
2019-04-20T10:54:22.448Z,22.40
2019-04-20T10:55:29.592Z,22.40
2019-04-20T10:56:37.328Z,22.40
2019-04-20T10:57:44.264Z,22.40
2019-04-20T10:58:51.674Z,22.40
2019-04-20T10:59:59.618Z,22.50
2019-04-20T11:01:07.375Z,22.40
2019-04-20T11:02:15.762Z,22.30
2019-04-20T11:03:22.829Z,22.30
2019-04-20T11:04:30.565Z,22.40
2019-04-20T11:05:38.292Z,22.40
2019-04-20T11:06:46.845Z,22.40
2019-04-20T11:07:54.694Z,22.40
2019-04-20T11:09:02.551Z,22.50
2019-04-20T11:10:15.714Z,22.60
2019-04-20T11:11:26.178Z,22.60
2019-04-20T11:12:28.436Z,22.60
2019-04-20T11:13:35.355Z,22.60
2019-04-20T11:14:44.291Z,22.60
2019-04-20T11:15:50.994Z,22.60
2019-04-20T11:16:58.401Z,22.60
2019-04-20T11:18:06.861Z,22.60
2019-04-20T11:19:15.555Z,22.60
2019-04-20T11:20:23.468Z,22.60
2019-04-20T11:21:30.582Z,22.70
2019-04-20T11:22:38.045Z,22.70
2019-04-20T11:23:45.043Z,22.70
2019-04-20T11:24:52.395Z,22.70
2019-04-20T11:26:00.149Z,22.80
2019-04-20T11:27:07.871Z,22.80
2019-04-20T11:28:16.476Z,22.90
2019-04-20T11:29:24.182Z,22.90
2019-04-20T11:30:32.184Z,22.80
2019-04-20T11:31:44.317Z,22.90
2019-04-20T11:32:48.427Z,22.80
2019-04-20T11:33:58.299Z,22.90
2019-04-20T11:35:09.102Z,22.90
2019-04-20T11:36:14.965Z,23.00
2019-04-20T11:37:21.830Z,23.10
2019-04-20T11:38:30.233Z,23.10
2019-04-20T11:39:37.090Z,23.00
2019-04-20T11:40:44.880Z,23.00
2019-04-20T11:41:51.803Z,23.10
2019-04-20T11:42:59.682Z,23.10
2019-04-20T11:44:29.375Z,23.20
2019-04-20T11:45:34.096Z,23.20
2019-04-20T11:46:41.172Z,23.20
2019-04-20T11:47:47.937Z,23.10
2019-04-20T11:48:55.298Z,23.10
2019-04-20T11:50:02.116Z,23.20
2019-04-20T11:51:09.489Z,23.20
2019-04-20T11:52:21.130Z,23.20
2019-04-20T11:53:26.853Z,23.10
2019-04-20T11:54:34.891Z,23.10
2019-04-20T11:55:42.341Z,23.10
2019-04-20T11:56:49.342Z,23.10
2019-04-20T11:57:56.270Z,23.20
2019-04-20T11:59:03.642Z,23.10
2019-04-20T12:00:15.075Z,23.10
2019-04-20T12:01:58.879Z,23.10
2019-04-20T12:03:32.897Z,23.20
2019-04-20T12:05:04.053Z,23.20
2019-04-20T12:06:03.518Z,23.30
2019-04-20T12:07:08.851Z,23.30
2019-04-20T12:08:16.659Z,23.30
2019-04-20T12:09:24.630Z,23.20
2019-04-20T12:10:33.184Z,23.20
2019-04-20T12:11:53.467Z,23.20
2019-04-20T12:12:52.184Z,23.30
2019-04-20T12:13:58.570Z,23.30
2019-04-20T12:15:06.466Z,23.40
2019-04-20T12:16:13.896Z,23.40
2019-04-20T12:17:21.784Z,23.40
2019-04-20T12:18:29.514Z,23.50
2019-04-20T12:19:37.862Z,23.60
2019-04-20T12:20:45.009Z,23.50
2019-04-20T12:21:51.905Z,23.40
2019-04-20T12:23:00.118Z,23.40
2019-04-20T12:24:07.410Z,23.40
2019-04-20T12:25:15.864Z,23.40
2019-04-20T12:26:24.808Z,23.40
2019-04-20T12:27:32.513Z,23.40
2019-04-20T12:28:40.134Z,23.40
2019-04-20T12:29:47.881Z,23.50
2019-04-20T12:30:55.998Z,23.60
2019-04-20T12:32:05.262Z,23.60
2019-04-20T12:33:13.475Z,23.60
2019-04-20T12:34:20.486Z,23.70
2019-04-20T12:35:27.692Z,23.70
2019-04-20T12:36:35.293Z,23.60
2019-04-20T12:37:43.118Z,23.60
2019-04-20T12:38:50.969Z,23.50
2019-04-20T12:39:58.510Z,23.50
2019-04-20T12:41:07.496Z,23.60
2019-04-20T12:42:14.834Z,23.60
2019-04-20T12:43:21.756Z,23.60
2019-04-20T12:44:29.998Z,23.70
2019-04-20T12:45:37.795Z,23.80
2019-04-20T12:46:45.850Z,23.70
2019-04-20T12:47:53.743Z,23.60
2019-04-20T12:49:01.764Z,23.60
2019-04-20T12:50:11.825Z,23.50
2019-04-20T12:51:19.676Z,23.50
2019-04-20T12:52:27.974Z,23.60
2019-04-20T12:53:35.383Z,23.60
2019-04-20T12:54:44.522Z,23.70
2019-04-20T12:55:50.846Z,23.70
2019-04-20T12:56:58.587Z,23.60
2019-04-20T12:58:05.720Z,23.60
2019-04-20T12:59:13.802Z,23.50
2019-04-20T13:00:23.623Z,23.40
2019-04-20T13:01:30.537Z,23.50
2019-04-20T13:02:37.674Z,23.70
2019-04-20T13:03:59.762Z,23.70
2019-04-20T13:05:01.682Z,23.80
2019-04-20T13:06:10.471Z,23.90
2019-04-20T13:07:17.711Z,24.00
2019-04-20T13:08:31.827Z,24.00
2019-04-20T13:09:41.723Z,24.00
2019-04-20T13:11:05.021Z,23.90
2019-04-20T13:12:30.410Z,24.00
2019-04-20T13:13:54.805Z,23.90
2019-04-20T13:15:38.299Z,23.70
2019-04-20T13:16:48.329Z,23.80
2019-04-20T13:17:54.291Z,23.70
2019-04-20T13:19:03.833Z,23.70
2019-04-20T13:20:11.932Z,23.70
2019-04-20T13:21:19.106Z,23.70
2019-04-20T13:22:26.193Z,23.70
2019-04-20T13:23:33.310Z,23.70
2019-04-20T13:24:40.993Z,23.70
2019-04-20T13:25:48.760Z,23.70
2019-04-20T13:26:56.215Z,23.70
2019-04-20T13:28:03.501Z,23.70
2019-04-20T13:29:10.972Z,23.70
2019-04-20T13:30:19.345Z,23.70
2019-04-20T13:31:26.950Z,23.60
2019-04-20T13:32:34.445Z,23.60
2019-04-20T13:33:41.387Z,23.60
2019-04-20T13:34:48.268Z,23.60
2019-04-20T13:35:56.634Z,23.50
2019-04-20T13:37:04.280Z,23.60
2019-04-20T13:38:12.042Z,23.60
2019-04-20T13:39:19.860Z,23.70
2019-04-20T13:40:27.956Z,23.80
2019-04-20T13:41:35.787Z,23.80
2019-04-20T13:42:43.671Z,23.80
2019-04-20T13:43:50.574Z,23.80
2019-04-20T13:44:58.967Z,23.80
2019-04-20T13:46:07.139Z,23.90
2019-04-20T13:47:14.883Z,23.90
2019-04-20T13:48:22.131Z,23.90
2019-04-20T13:49:29.183Z,23.90
2019-04-20T13:50:36.198Z,23.90
2019-04-20T13:51:44.501Z,23.80
2019-04-20T13:52:52.737Z,23.80
2019-04-20T13:54:01.745Z,23.70
2019-04-20T13:55:10.593Z,23.70
2019-04-20T13:56:20.022Z,23.70
2019-04-20T13:57:37.930Z,23.90
2019-04-20T13:59:16.158Z,23.90
2019-04-20T14:00:40.913Z,24.00
2019-04-20T14:02:25.150Z,24.00
2019-04-20T14:03:32.484Z,23.80
2019-04-20T14:04:48.794Z,23.80
2019-04-20T14:05:56.441Z,23.80
2019-04-20T14:07:04.168Z,24.00
2019-04-20T14:08:13.474Z,23.90
2019-04-20T14:09:21.322Z,23.90
2019-04-20T14:10:29.258Z,24.00
2019-04-20T14:11:36.853Z,24.10
2019-04-20T14:12:53.411Z,24.00
2019-04-20T14:13:57.581Z,24.10
2019-04-20T14:15:01.498Z,24.30
2019-04-20T14:16:09.544Z,24.40
2019-04-20T14:17:17.032Z,24.40
2019-04-20T14:18:27.007Z,24.30
2019-04-20T14:19:34.797Z,24.20
2019-04-20T14:20:42.421Z,24.30
2019-04-20T14:21:50.202Z,24.30
2019-04-20T14:22:57.376Z,24.30
2019-04-20T14:24:04.402Z,24.20
2019-04-20T14:25:11.475Z,24.30
2019-04-20T14:26:18.894Z,24.10
2019-04-20T14:27:26.680Z,24.20
2019-04-20T14:28:33.462Z,24.10
2019-04-20T14:29:41.189Z,24.10
2019-04-20T14:30:48.139Z,24.10
2019-04-20T14:31:55.685Z,24.10
2019-04-20T14:33:03.443Z,23.90
2019-04-20T14:34:12.911Z,24.10
2019-04-20T14:35:18.958Z,24.10
2019-04-20T14:36:26.533Z,24.10
2019-04-20T14:37:33.407Z,24.30
2019-04-20T14:38:40.267Z,24.40
2019-04-20T14:39:48.040Z,24.30
2019-04-20T14:40:59.842Z,24.20
2019-04-20T14:42:08.329Z,24.20
2019-04-20T14:43:15.152Z,24.10
2019-04-20T14:44:21.965Z,24.10
2019-04-20T14:45:29.586Z,24.10
2019-04-20T14:46:37.755Z,24.30
2019-04-20T14:47:45.859Z,24.40
2019-04-20T14:48:52.855Z,24.30
2019-04-20T14:50:02.885Z,24.10
2019-04-20T14:51:11.811Z,24.10
2019-04-20T14:52:19.624Z,24.10
2019-04-20T14:53:27.496Z,24.40
2019-04-20T14:54:35.630Z,24.50
2019-04-20T14:55:43.500Z,24.50
2019-04-20T14:56:51.671Z,24.50
2019-04-20T14:58:03.615Z,24.60
2019-04-20T14:59:19.734Z,24.40
2019-04-20T15:01:00.471Z,24.30
2019-04-20T15:02:17.183Z,24.30
2019-04-20T15:03:30.389Z,24.20
2019-04-20T15:04:38.952Z,24.30
2019-04-20T15:05:48.803Z,24.30
2019-04-20T15:06:56.865Z,24.20
2019-04-20T15:08:04.800Z,24.20
2019-04-20T15:09:12.916Z,24.10
2019-04-20T15:10:20.609Z,24.10
2019-04-20T15:11:27.795Z,24.10
2019-04-20T15:12:41.974Z,24.00
2019-04-20T15:13:46.992Z,24.00
2019-04-20T15:14:56.598Z,24.10
2019-04-20T15:16:04.661Z,24.40
2019-04-20T15:17:15.454Z,24.50
2019-04-20T15:18:23.783Z,24.60
2019-04-20T15:19:45.469Z,24.50
2019-04-20T15:20:55.534Z,24.40
2019-04-20T15:22:05.326Z,24.30
2019-04-20T15:23:23.765Z,24.20
2019-04-20T15:24:31.546Z,24.10
2019-04-20T15:25:40.142Z,24.20
2019-04-20T15:26:47.199Z,24.00